sensor_id;sensor_type;location;lat;lon;timestamp;P1;durP1;ratioP1;P2;durP2;ratioP2
8622;SDS011;4349;47.552;8.904;2023-02-20T00:01:17;2.10;;;2.00;;
8622;SDS011;4349;47.552;8.904;2023-02-20T00:03:44;2.70;;;2.50;;
8622;SDS011;4349;47.552;8.904;2023-02-20T00:06:12;3.33;;;2.00;;
8622;SDS011;4349;47.552;8.904;2023-02-20T00:08:40;2.20;;;2.10;;
8622;SDS011;4349;47.552;8.904;2023-02-20T00:11:08;2.40;;;2.20;;
8622;SDS011;4349;47.552;8.904;2023-02-20T00:13:39;2.00;;;1.90;;
8622;SDS011;4349;47.552;8.904;2023-02-20T00:16:10;2.10;;;2.00;;
8622;SDS011;4349;47.552;8.904;2023-02-20T00:18:39;2.27;;;2.03;;
8622;SDS011;4349;47.552;8.904;2023-02-20T00:21:06;2.67;;;2.27;;
8622;SDS011;4349;47.552;8.904;2023-02-20T00:23:34;2.77;;;2.07;;
8622;SDS011;4349;47.552;8.904;2023-02-20T00:26:01;2.30;;;2.10;;
8622;SDS011;4349;47.552;8.904;2023-02-20T00:28:29;2.47;;;2.27;;
8622;SDS011;4349;47.552;8.904;2023-02-20T00:30:57;4.93;;;2.40;;
8622;SDS011;4349;47.552;8.904;2023-02-20T00:33:26;2.67;;;2.47;;
8622;SDS011;4349;47.552;8.904;2023-02-20T00:35:56;3.03;;;2.30;;
8622;SDS011;4349;47.552;8.904;2023-02-20T00:38:23;3.60;;;2.00;;
8622;SDS011;4349;47.552;8.904;2023-02-20T00:40:52;2.20;;;1.70;;
8622;SDS011;4349;47.552;8.904;2023-02-20T00:43:19;3.60;;;2.20;;
8622;SDS011;4349;47.552;8.904;2023-02-20T00:45:47;3.00;;;2.40;;
8622;SDS011;4349;47.552;8.904;2023-02-20T00:48:16;2.60;;;2.40;;
8622;SDS011;4349;47.552;8.904;2023-02-20T00:50:43;2.50;;;2.40;;
8622;SDS011;4349;47.552;8.904;2023-02-20T00:53:12;2.47;;;2.20;;
8622;SDS011;4349;47.552;8.904;2023-02-20T00:55:40;2.30;;;2.10;;
8622;SDS011;4349;47.552;8.904;2023-02-20T00:58:09;2.53;;;2.30;;
8622;SDS011;4349;47.552;8.904;2023-02-20T01:00:37;5.33;;;3.23;;
8622;SDS011;4349;47.552;8.904;2023-02-20T01:03:05;2.10;;;1.90;;
8622;SDS011;4349;47.552;8.904;2023-02-20T01:05:33;2.90;;;2.20;;
8622;SDS011;4349;47.552;8.904;2023-02-20T01:08:01;3.30;;;2.33;;
8622;SDS011;4349;47.552;8.904;2023-02-20T01:10:28;2.60;;;2.40;;
8622;SDS011;4349;47.552;8.904;2023-02-20T01:12:56;2.10;;;2.00;;
8622;SDS011;4349;47.552;8.904;2023-02-20T01:15:24;2.20;;;2.10;;
8622;SDS011;4349;47.552;8.904;2023-02-20T01:17:55;2.20;;;2.10;;
8622;SDS011;4349;47.552;8.904;2023-02-20T01:20:23;3.07;;;2.20;;
8622;SDS011;4349;47.552;8.904;2023-02-20T01:22:55;2.43;;;2.23;;
8622;SDS011;4349;47.552;8.904;2023-02-20T01:25:23;2.60;;;2.20;;
8622;SDS011;4349;47.552;8.904;2023-02-20T01:27:52;2.93;;;2.40;;
8622;SDS011;4349;47.552;8.904;2023-02-20T01:30:21;3.10;;;2.17;;
8622;SDS011;4349;47.552;8.904;2023-02-20T01:32:49;2.53;;;2.30;;
8622;SDS011;4349;47.552;8.904;2023-02-20T01:35:16;4.07;;;2.40;;
8622;SDS011;4349;47.552;8.904;2023-02-20T01:37:44;2.50;;;2.23;;
8622;SDS011;4349;47.552;8.904;2023-02-20T01:40:14;3.07;;;2.40;;
8622;SDS011;4349;47.552;8.904;2023-02-20T01:42:42;2.40;;;2.23;;
8622;SDS011;4349;47.552;8.904;2023-02-20T01:48:01;2.20;;;2.10;;
8622;SDS011;4349;47.552;8.904;2023-02-20T01:50:29;2.33;;;2.13;;
8622;SDS011;4349;47.552;8.904;2023-02-20T01:52:58;3.13;;;2.33;;
8622;SDS011;4349;47.552;8.904;2023-02-20T01:55:28;2.40;;;2.20;;
8622;SDS011;4349;47.552;8.904;2023-02-20T01:57:58;2.50;;;2.30;;
8622;SDS011;4349;47.552;8.904;2023-02-20T02:00:26;2.20;;;2.10;;
8622;SDS011;4349;47.552;8.904;2023-02-20T02:02:56;2.47;;;2.27;;
8622;SDS011;4349;47.552;8.904;2023-02-20T02:05:25;2.13;;;1.93;;
8622;SDS011;4349;47.552;8.904;2023-02-20T02:07:55;2.03;;;1.93;;
8622;SDS011;4349;47.552;8.904;2023-02-20T02:10:27;2.00;;;1.90;;
8622;SDS011;4349;47.552;8.904;2023-02-20T02:12:57;3.63;;;2.37;;
8622;SDS011;4349;47.552;8.904;2023-02-20T02:15:25;5.27;;;2.60;;
8622;SDS011;4349;47.552;8.904;2023-02-20T02:17:59;2.10;;;2.00;;
8622;SDS011;4349;47.552;8.904;2023-02-20T02:23:31;2.97;;;2.77;;
8622;SDS011;4349;47.552;8.904;2023-02-20T02:26:11;3.03;;;2.13;;
8622;SDS011;4349;47.552;8.904;2023-02-20T02:31:37;2.43;;;2.13;;
8622;SDS011;4349;47.552;8.904;2023-02-20T02:34:20;3.33;;;2.30;;
8622;SDS011;4349;47.552;8.904;2023-02-20T02:36:58;3.13;;;2.23;;
8622;SDS011;4349;47.552;8.904;2023-02-20T02:39:29;3.60;;;2.20;;
8622;SDS011;4349;47.552;8.904;2023-02-20T02:41:59;2.80;;;2.60;;
8622;SDS011;4349;47.552;8.904;2023-02-20T02:44:31;3.23;;;2.40;;
8622;SDS011;4349;47.552;8.904;2023-02-20T02:47:01;2.30;;;2.17;;
8622;SDS011;4349;47.552;8.904;2023-02-20T02:49:30;2.27;;;2.17;;
8622;SDS011;4349;47.552;8.904;2023-02-20T02:52:02;2.17;;;2.07;;
8622;SDS011;4349;47.552;8.904;2023-02-20T02:54:30;2.13;;;2.03;;
8622;SDS011;4349;47.552;8.904;2023-02-20T02:59:44;3.13;;;2.10;;
8622;SDS011;4349;47.552;8.904;2023-02-20T03:02:14;2.77;;;1.90;;
8622;SDS011;4349;47.552;8.904;2023-02-20T03:04:44;2.53;;;2.27;;
8622;SDS011;4349;47.552;8.904;2023-02-20T03:07:15;3.37;;;2.07;;
8622;SDS011;4349;47.552;8.904;2023-02-20T03:09:46;2.27;;;2.00;;
8622;SDS011;4349;47.552;8.904;2023-02-20T03:12:14;2.40;;;2.10;;
8622;SDS011;4349;47.552;8.904;2023-02-20T03:14:43;1.90;;;1.80;;
8622;SDS011;4349;47.552;8.904;2023-02-20T03:17:31;2.53;;;1.93;;
8622;SDS011;4349;47.552;8.904;2023-02-20T03:20:04;2.10;;;2.00;;
8622;SDS011;4349;47.552;8.904;2023-02-20T03:22:33;2.00;;;1.80;;
8622;SDS011;4349;47.552;8.904;2023-02-20T03:25:03;2.40;;;2.20;;
8622;SDS011;4349;47.552;8.904;2023-02-20T03:27:34;2.37;;;2.10;;
8622;SDS011;4349;47.552;8.904;2023-02-20T03:30:09;2.57;;;2.00;;
8622;SDS011;4349;47.552;8.904;2023-02-20T03:32:39;2.03;;;1.90;;
8622;SDS011;4349;47.552;8.904;2023-02-20T03:35:25;2.43;;;2.23;;
8622;SDS011;4349;47.552;8.904;2023-02-20T03:38:13;2.50;;;2.40;;
8622;SDS011;4349;47.552;8.904;2023-02-20T03:41:01;1.97;;;1.87;;
8622;SDS011;4349;47.552;8.904;2023-02-20T03:43:50;2.20;;;2.10;;
8622;SDS011;4349;47.552;8.904;2023-02-20T03:46:20;2.90;;;2.30;;
8622;SDS011;4349;47.552;8.904;2023-02-20T03:48:50;2.30;;;2.10;;
8622;SDS011;4349;47.552;8.904;2023-02-20T03:51:18;2.37;;;2.13;;
8622;SDS011;4349;47.552;8.904;2023-02-20T03:53:59;2.13;;;2.03;;
8622;SDS011;4349;47.552;8.904;2023-02-20T03:56:28;2.97;;;2.40;;
8622;SDS011;4349;47.552;8.904;2023-02-20T03:59:00;2.13;;;1.97;;
8622;SDS011;4349;47.552;8.904;2023-02-20T04:01:28;2.20;;;2.10;;
8622;SDS011;4349;47.552;8.904;2023-02-20T04:03:55;2.20;;;2.00;;
8622;SDS011;4349;47.552;8.904;2023-02-20T04:06:26;2.40;;;2.30;;
8622;SDS011;4349;47.552;8.904;2023-02-20T04:08:59;2.73;;;2.13;;
8622;SDS011;4349;47.552;8.904;2023-02-20T04:11:36;2.50;;;2.10;;
8622;SDS011;4349;47.552;8.904;2023-02-20T04:14:05;2.40;;;2.30;;
8622;SDS011;4349;47.552;8.904;2023-02-20T04:16:34;3.77;;;2.30;;
8622;SDS011;4349;47.552;8.904;2023-02-20T04:19:03;3.43;;;2.40;;
8622;SDS011;4349;47.552;8.904;2023-02-20T04:21:31;2.90;;;2.70;;
8622;SDS011;4349;47.552;8.904;2023-02-20T04:24:01;2.73;;;2.53;;
8622;SDS011;4349;47.552;8.904;2023-02-20T04:26:30;2.80;;;2.40;;
8622;SDS011;4349;47.552;8.904;2023-02-20T04:29:00;2.80;;;2.60;;
8622;SDS011;4349;47.552;8.904;2023-02-20T04:31:29;2.83;;;2.57;;
8622;SDS011;4349;47.552;8.904;2023-02-20T04:33:58;2.73;;;2.63;;
8622;SDS011;4349;47.552;8.904;2023-02-20T04:36:26;4.37;;;2.60;;
8622;SDS011;4349;47.552;8.904;2023-02-20T04:38:56;2.43;;;2.23;;
8622;SDS011;4349;47.552;8.904;2023-02-20T04:41:28;2.80;;;2.60;;
8622;SDS011;4349;47.552;8.904;2023-02-20T04:43:56;2.87;;;2.67;;
8622;SDS011;4349;47.552;8.904;2023-02-20T04:46:39;4.80;;;3.00;;
8622;SDS011;4349;47.552;8.904;2023-02-20T04:49:07;2.87;;;2.67;;
8622;SDS011;4349;47.552;8.904;2023-02-20T04:51:35;2.53;;;2.33;;
8622;SDS011;4349;47.552;8.904;2023-02-20T04:54:02;2.37;;;2.27;;
8622;SDS011;4349;47.552;8.904;2023-02-20T04:56:30;3.17;;;2.73;;
8622;SDS011;4349;47.552;8.904;2023-02-20T04:59:01;2.77;;;2.57;;
8622;SDS011;4349;47.552;8.904;2023-02-20T05:01:28;2.67;;;2.47;;
8622;SDS011;4349;47.552;8.904;2023-02-20T05:03:57;3.70;;;2.70;;
8622;SDS011;4349;47.552;8.904;2023-02-20T05:06:24;2.50;;;2.30;;
8622;SDS011;4349;47.552;8.904;2023-02-20T05:08:52;2.40;;;2.30;;
8622;SDS011;4349;47.552;8.904;2023-02-20T05:11:20;3.83;;;2.90;;
8622;SDS011;4349;47.552;8.904;2023-02-20T05:13:47;2.60;;;2.40;;
8622;SDS011;4349;47.552;8.904;2023-02-20T05:16:15;2.60;;;2.40;;
8622;SDS011;4349;47.552;8.904;2023-02-20T05:18:42;3.20;;;2.90;;
8622;SDS011;4349;47.552;8.904;2023-02-20T05:21:13;3.60;;;3.03;;
8622;SDS011;4349;47.552;8.904;2023-02-20T05:23:58;3.33;;;2.77;;
8622;SDS011;4349;47.552;8.904;2023-02-20T05:26:25;2.90;;;2.70;;
8622;SDS011;4349;47.552;8.904;2023-02-20T05:28:54;2.93;;;2.73;;
8622;SDS011;4349;47.552;8.904;2023-02-20T05:31:22;3.30;;;2.90;;
8622;SDS011;4349;47.552;8.904;2023-02-20T05:33:50;3.17;;;2.97;;
8622;SDS011;4349;47.552;8.904;2023-02-20T05:36:18;3.17;;;2.87;;
8622;SDS011;4349;47.552;8.904;2023-02-20T05:38:46;4.10;;;2.83;;
8622;SDS011;4349;47.552;8.904;2023-02-20T05:41:14;3.20;;;3.00;;
8622;SDS011;4349;47.552;8.904;2023-02-20T05:43:44;3.00;;;2.80;;
8622;SDS011;4349;47.552;8.904;2023-02-20T05:46:11;2.83;;;2.63;;
8622;SDS011;4349;47.552;8.904;2023-02-20T05:48:39;3.33;;;3.00;;
8622;SDS011;4349;47.552;8.904;2023-02-20T05:51:07;4.10;;;3.43;;
8622;SDS011;4349;47.552;8.904;2023-02-20T05:53:36;3.20;;;3.00;;
8622;SDS011;4349;47.552;8.904;2023-02-20T05:56:04;3.53;;;3.10;;
8622;SDS011;4349;47.552;8.904;2023-02-20T05:58:31;3.20;;;2.90;;
8622;SDS011;4349;47.552;8.904;2023-02-20T06:01:01;3.60;;;3.27;;
8622;SDS011;4349;47.552;8.904;2023-02-20T06:03:29;3.40;;;3.20;;
8622;SDS011;4349;47.552;8.904;2023-02-20T06:05:56;3.17;;;2.97;;
8622;SDS011;4349;47.552;8.904;2023-02-20T06:08:23;3.03;;;2.83;;
8622;SDS011;4349;47.552;8.904;2023-02-20T06:10:52;4.83;;;3.07;;
8622;SDS011;4349;47.552;8.904;2023-02-20T06:13:21;3.50;;;3.30;;
8622;SDS011;4349;47.552;8.904;2023-02-20T06:15:48;3.50;;;3.30;;
8622;SDS011;4349;47.552;8.904;2023-02-20T06:18:15;3.40;;;3.20;;
8622;SDS011;4349;47.552;8.904;2023-02-20T06:20:43;3.53;;;3.30;;
8622;SDS011;4349;47.552;8.904;2023-02-20T06:23:10;6.67;;;6.00;;
8622;SDS011;4349;47.552;8.904;2023-02-20T06:25:38;4.10;;;3.80;;
8622;SDS011;4349;47.552;8.904;2023-02-20T06:28:07;3.47;;;3.27;;
8622;SDS011;4349;47.552;8.904;2023-02-20T06:30:34;3.87;;;3.40;;
8622;SDS011;4349;47.552;8.904;2023-02-20T06:33:01;3.80;;;3.60;;
8622;SDS011;4349;47.552;8.904;2023-02-20T06:35:29;3.10;;;2.90;;
8622;SDS011;4349;47.552;8.904;2023-02-20T06:37:56;3.87;;;3.53;;
8622;SDS011;4349;47.552;8.904;2023-02-20T06:40:24;3.97;;;3.67;;
8622;SDS011;4349;47.552;8.904;2023-02-20T06:42:51;3.83;;;3.43;;
8622;SDS011;4349;47.552;8.904;2023-02-20T06:45:20;4.17;;;3.70;;
8622;SDS011;4349;47.552;8.904;2023-02-20T06:47:47;3.63;;;3.30;;
8622;SDS011;4349;47.552;8.904;2023-02-20T06:50:15;6.03;;;3.53;;
8622;SDS011;4349;47.552;8.904;2023-02-20T06:52:42;4.13;;;3.73;;
8622;SDS011;4349;47.552;8.904;2023-02-20T06:55:10;5.07;;;4.30;;
8622;SDS011;4349;47.552;8.904;2023-02-20T06:57:37;4.50;;;3.27;;
8622;SDS011;4349;47.552;8.904;2023-02-20T07:00:05;3.60;;;3.37;;
8622;SDS011;4349;47.552;8.904;2023-02-20T07:02:34;3.07;;;2.97;;
8622;SDS011;4349;47.552;8.904;2023-02-20T07:05:02;3.60;;;3.40;;
8622;SDS011;4349;47.552;8.904;2023-02-20T07:07:29;3.03;;;2.90;;
8622;SDS011;4349;47.552;8.904;2023-02-20T07:09:57;4.50;;;4.10;;
8622;SDS011;4349;47.552;8.904;2023-02-20T07:12:28;5.20;;;3.30;;
8622;SDS011;4349;47.552;8.904;2023-02-20T07:14:55;3.50;;;3.20;;
8622;SDS011;4349;47.552;8.904;2023-02-20T07:17:23;3.70;;;3.50;;
8622;SDS011;4349;47.552;8.904;2023-02-20T07:19:51;3.80;;;3.53;;
8622;SDS011;4349;47.552;8.904;2023-02-20T07:22:19;3.87;;;3.63;;
8622;SDS011;4349;47.552;8.904;2023-02-20T07:24:48;4.77;;;4.03;;
8622;SDS011;4349;47.552;8.904;2023-02-20T07:27:16;4.30;;;3.97;;
8622;SDS011;4349;47.552;8.904;2023-02-20T07:29:44;4.90;;;4.50;;
8622;SDS011;4349;47.552;8.904;2023-02-20T07:32:11;7.30;;;5.87;;
8622;SDS011;4349;47.552;8.904;2023-02-20T07:34:39;7.40;;;5.47;;
8622;SDS011;4349;47.552;8.904;2023-02-20T07:37:15;7.20;;;6.47;;
8622;SDS011;4349;47.552;8.904;2023-02-20T07:39:42;9.93;;;6.50;;
8622;SDS011;4349;47.552;8.904;2023-02-20T07:42:10;6.17;;;5.57;;
8622;SDS011;4349;47.552;8.904;2023-02-20T07:44:44;6.53;;;5.93;;
8622;SDS011;4349;47.552;8.904;2023-02-20T07:47:14;5.77;;;5.27;;
8622;SDS011;4349;47.552;8.904;2023-02-20T07:49:42;4.17;;;3.80;;
8622;SDS011;4349;47.552;8.904;2023-02-20T07:52:09;4.83;;;4.43;;
8622;SDS011;4349;47.552;8.904;2023-02-20T07:54:38;4.80;;;4.40;;
8622;SDS011;4349;47.552;8.904;2023-02-20T07:57:05;5.23;;;4.77;;
8622;SDS011;4349;47.552;8.904;2023-02-20T07:59:33;6.37;;;4.30;;
8622;SDS011;4349;47.552;8.904;2023-02-20T08:02:00;4.90;;;4.30;;
8622;SDS011;4349;47.552;8.904;2023-02-20T08:04:28;5.93;;;4.70;;
8622;SDS011;4349;47.552;8.904;2023-02-20T08:06:55;5.57;;;4.30;;
8622;SDS011;4349;47.552;8.904;2023-02-20T08:09:24;4.30;;;3.90;;
8622;SDS011;4349;47.552;8.904;2023-02-20T08:11:54;7.30;;;4.60;;
8622;SDS011;4349;47.552;8.904;2023-02-20T08:14:22;5.00;;;4.37;;
8622;SDS011;4349;47.552;8.904;2023-02-20T08:16:50;4.97;;;4.60;;
8622;SDS011;4349;47.552;8.904;2023-02-20T08:19:17;5.07;;;4.00;;
8622;SDS011;4349;47.552;8.904;2023-02-20T08:21:45;6.07;;;4.03;;
8622;SDS011;4349;47.552;8.904;2023-02-20T08:24:13;4.77;;;4.20;;
8622;SDS011;4349;47.552;8.904;2023-02-20T08:26:43;5.17;;;4.67;;
8622;SDS011;4349;47.552;8.904;2023-02-20T08:29:13;4.50;;;4.20;;
8622;SDS011;4349;47.552;8.904;2023-02-20T08:31:41;6.30;;;4.17;;
8622;SDS011;4349;47.552;8.904;2023-02-20T08:34:09;4.50;;;4.10;;
8622;SDS011;4349;47.552;8.904;2023-02-20T08:36:37;4.77;;;4.40;;
8622;SDS011;4349;47.552;8.904;2023-02-20T08:39:06;4.63;;;4.27;;
8622;SDS011;4349;47.552;8.904;2023-02-20T08:41:34;5.30;;;4.50;;
8622;SDS011;4349;47.552;8.904;2023-02-20T08:44:02;4.60;;;4.40;;
8622;SDS011;4349;47.552;8.904;2023-02-20T08:46:31;4.33;;;3.97;;
8622;SDS011;4349;47.552;8.904;2023-02-20T08:48:58;4.73;;;4.33;;
8622;SDS011;4349;47.552;8.904;2023-02-20T08:51:26;5.17;;;4.70;;
8622;SDS011;4349;47.552;8.904;2023-02-20T08:53:53;6.77;;;5.50;;
8622;SDS011;4349;47.552;8.904;2023-02-20T08:56:21;7.10;;;5.83;;
8622;SDS011;4349;47.552;8.904;2023-02-20T08:58:48;8.47;;;5.47;;
8622;SDS011;4349;47.552;8.904;2023-02-20T09:01:15;6.07;;;5.47;;
8622;SDS011;4349;47.552;8.904;2023-02-20T09:03:44;6.07;;;5.43;;
8622;SDS011;4349;47.552;8.904;2023-02-20T09:06:14;7.97;;;6.57;;
8622;SDS011;4349;47.552;8.904;2023-02-20T09:08:41;5.97;;;5.37;;
8622;SDS011;4349;47.552;8.904;2023-02-20T09:11:09;8.63;;;5.63;;
8622;SDS011;4349;47.552;8.904;2023-02-20T09:13:40;6.97;;;5.80;;
8622;SDS011;4349;47.552;8.904;2023-02-20T09:16:07;6.13;;;5.53;;
8622;SDS011;4349;47.552;8.904;2023-02-20T09:18:35;8.63;;;5.70;;
8622;SDS011;4349;47.552;8.904;2023-02-20T09:21:04;5.40;;;5.00;;
8622;SDS011;4349;47.552;8.904;2023-02-20T09:23:34;5.67;;;5.10;;
8622;SDS011;4349;47.552;8.904;2023-02-20T09:26:03;6.10;;;5.50;;
8622;SDS011;4349;47.552;8.904;2023-02-20T09:28:31;5.97;;;5.40;;
8622;SDS011;4349;47.552;8.904;2023-02-20T09:30:59;5.80;;;5.33;;
8622;SDS011;4349;47.552;8.904;2023-02-20T09:33:27;6.00;;;5.40;;
8622;SDS011;4349;47.552;8.904;2023-02-20T09:35:55;6.27;;;5.67;;
8622;SDS011;4349;47.552;8.904;2023-02-20T09:38:23;6.03;;;5.27;;
8622;SDS011;4349;47.552;8.904;2023-02-20T09:40:53;5.33;;;4.87;;
8622;SDS011;4349;47.552;8.904;2023-02-20T09:43:25;6.20;;;5.23;;
8622;SDS011;4349;47.552;8.904;2023-02-20T09:45:57;5.47;;;4.83;;
8622;SDS011;4349;47.552;8.904;2023-02-20T09:48:29;4.87;;;4.47;;
8622;SDS011;4349;47.552;8.904;2023-02-20T09:50:58;5.00;;;4.53;;
8622;SDS011;4349;47.552;8.904;2023-02-20T09:53:30;5.60;;;5.10;;
8622;SDS011;4349;47.552;8.904;2023-02-20T09:55:59;6.00;;;4.50;;
8622;SDS011;4349;47.552;8.904;2023-02-20T09:58:32;5.30;;;4.80;;
8622;SDS011;4349;47.552;8.904;2023-02-20T10:01:03;5.60;;;4.90;;
8622;SDS011;4349;47.552;8.904;2023-02-20T10:03:31;5.60;;;5.10;;
8622;SDS011;4349;47.552;8.904;2023-02-20T10:06:02;5.10;;;4.67;;
8622;SDS011;4349;47.552;8.904;2023-02-20T10:08:34;4.57;;;4.27;;
8622;SDS011;4349;47.552;8.904;2023-02-20T10:11:02;5.90;;;4.87;;
8622;SDS011;4349;47.552;8.904;2023-02-20T10:13:42;7.13;;;4.80;;
8622;SDS011;4349;47.552;8.904;2023-02-20T10:16:18;6.63;;;4.80;;
8622;SDS011;4349;47.552;8.904;2023-02-20T10:18:49;8.20;;;4.43;;
8622;SDS011;4349;47.552;8.904;2023-02-20T10:21:27;6.27;;;4.60;;
8622;SDS011;4349;47.552;8.904;2023-02-20T10:24:00;8.40;;;4.90;;
8622;SDS011;4349;47.552;8.904;2023-02-20T10:26:32;4.33;;;3.93;;
8622;SDS011;4349;47.552;8.904;2023-02-20T10:29:13;4.77;;;4.33;;
8622;SDS011;4349;47.552;8.904;2023-02-20T10:31:46;6.60;;;4.40;;
8622;SDS011;4349;47.552;8.904;2023-02-20T10:34:15;5.10;;;4.60;;
8622;SDS011;4349;47.552;8.904;2023-02-20T10:36:46;5.87;;;4.63;;
8622;SDS011;4349;47.552;8.904;2023-02-20T10:39:17;4.60;;;4.20;;
8622;SDS011;4349;47.552;8.904;2023-02-20T10:41:48;4.63;;;4.23;;
8622;SDS011;4349;47.552;8.904;2023-02-20T10:44:20;6.67;;;5.37;;
8622;SDS011;4349;47.552;8.904;2023-02-20T10:46:50;4.87;;;4.57;;
8622;SDS011;4349;47.552;8.904;2023-02-20T10:49:20;6.57;;;4.83;;
8622;SDS011;4349;47.552;8.904;2023-02-20T10:51:50;4.90;;;4.37;;
8622;SDS011;4349;47.552;8.904;2023-02-20T10:54:24;6.93;;;4.83;;
8622;SDS011;4349;47.552;8.904;2023-02-20T10:56:53;5.33;;;4.93;;
8622;SDS011;4349;47.552;8.904;2023-02-20T10:59:22;5.27;;;4.77;;
8622;SDS011;4349;47.552;8.904;2023-02-20T11:01:54;4.80;;;4.40;;
8622;SDS011;4349;47.552;8.904;2023-02-20T11:04:22;5.00;;;4.70;;
8622;SDS011;4349;47.552;8.904;2023-02-20T11:06:52;4.93;;;4.43;;
8622;SDS011;4349;47.552;8.904;2023-02-20T11:09:22;4.80;;;4.40;;
8622;SDS011;4349;47.552;8.904;2023-02-20T11:11:51;4.93;;;4.63;;
8622;SDS011;4349;47.552;8.904;2023-02-20T11:14:20;7.20;;;4.60;;
8622;SDS011;4349;47.552;8.904;2023-02-20T11:17:06;6.00;;;4.70;;
8622;SDS011;4349;47.552;8.904;2023-02-20T11:19:39;5.00;;;4.70;;
8622;SDS011;4349;47.552;8.904;2023-02-20T11:22:09;6.20;;;5.67;;
8622;SDS011;4349;47.552;8.904;2023-02-20T11:24:38;7.10;;;5.30;;
8622;SDS011;4349;47.552;8.904;2023-02-20T11:27:07;5.10;;;4.70;;
8622;SDS011;4349;47.552;8.904;2023-02-20T11:29:38;5.17;;;4.77;;
8622;SDS011;4349;47.552;8.904;2023-02-20T11:32:16;6.57;;;5.13;;
8622;SDS011;4349;47.552;8.904;2023-02-20T11:34:44;5.07;;;4.70;;
8622;SDS011;4349;47.552;8.904;2023-02-20T11:37:12;5.40;;;5.00;;
8622;SDS011;4349;47.552;8.904;2023-02-20T11:39:45;5.07;;;4.73;;
8622;SDS011;4349;47.552;8.904;2023-02-20T11:42:17;5.73;;;5.23;;
8622;SDS011;4349;47.552;8.904;2023-02-20T11:44:49;4.90;;;4.60;;
8622;SDS011;4349;47.552;8.904;2023-02-20T11:47:36;5.07;;;4.77;;
8622;SDS011;4349;47.552;8.904;2023-02-20T11:50:11;4.90;;;4.50;;
8622;SDS011;4349;47.552;8.904;2023-02-20T11:52:58;4.90;;;4.57;;
8622;SDS011;4349;47.552;8.904;2023-02-20T11:55:28;7.60;;;4.53;;
8622;SDS011;4349;47.552;8.904;2023-02-20T11:57:57;4.63;;;4.33;;
8622;SDS011;4349;47.552;8.904;2023-02-20T12:00:27;4.87;;;4.50;;
8622;SDS011;4349;47.552;8.904;2023-02-20T12:02:55;4.50;;;4.20;;
8622;SDS011;4349;47.552;8.904;2023-02-20T12:05:37;4.87;;;4.47;;
8622;SDS011;4349;47.552;8.904;2023-02-20T12:08:19;6.83;;;4.27;;
8622;SDS011;4349;47.552;8.904;2023-02-20T12:10:48;4.57;;;4.17;;
8622;SDS011;4349;47.552;8.904;2023-02-20T12:13:18;4.50;;;4.20;;
8622;SDS011;4349;47.552;8.904;2023-02-20T12:15:47;4.17;;;3.97;;
8622;SDS011;4349;47.552;8.904;2023-02-20T12:18:27;4.70;;;4.30;;
8622;SDS011;4349;47.552;8.904;2023-02-20T12:21:01;5.10;;;4.70;;
8622;SDS011;4349;47.552;8.904;2023-02-20T12:23:33;4.70;;;4.30;;
8622;SDS011;4349;47.552;8.904;2023-02-20T12:26:07;4.60;;;4.30;;
8622;SDS011;4349;47.552;8.904;2023-02-20T12:28:41;4.67;;;4.33;;
8622;SDS011;4349;47.552;8.904;2023-02-20T12:31:13;4.50;;;4.20;;
8622;SDS011;4349;47.552;8.904;2023-02-20T12:33:51;4.37;;;4.07;;
8622;SDS011;4349;47.552;8.904;2023-02-20T12:36:26;4.67;;;4.37;;
8622;SDS011;4349;47.552;8.904;2023-02-20T12:38:55;4.40;;;4.00;;
8622;SDS011;4349;47.552;8.904;2023-02-20T12:41:28;3.77;;;3.57;;
8622;SDS011;4349;47.552;8.904;2023-02-20T12:44:12;3.50;;;3.30;;
8622;SDS011;4349;47.552;8.904;2023-02-20T12:46:45;3.73;;;3.40;;
8622;SDS011;4349;47.552;8.904;2023-02-20T12:49:19;3.77;;;3.47;;
8622;SDS011;4349;47.552;8.904;2023-02-20T12:51:48;3.60;;;3.33;;
8622;SDS011;4349;47.552;8.904;2023-02-20T12:54:21;4.23;;;3.93;;
8622;SDS011;4349;47.552;8.904;2023-02-20T12:56:56;6.57;;;3.80;;
8622;SDS011;4349;47.552;8.904;2023-02-20T12:59:27;3.40;;;3.20;;
8622;SDS011;4349;47.552;8.904;2023-02-20T13:01:59;3.53;;;3.23;;
8622;SDS011;4349;47.552;8.904;2023-02-20T13:04:41;4.60;;;3.40;;
8622;SDS011;4349;47.552;8.904;2023-02-20T13:07:14;3.50;;;3.20;;
8622;SDS011;4349;47.552;8.904;2023-02-20T13:09:44;2.90;;;2.80;;
8622;SDS011;4349;47.552;8.904;2023-02-20T13:12:22;3.30;;;3.10;;
8622;SDS011;4349;47.552;8.904;2023-02-20T13:14:54;3.37;;;3.17;;
8622;SDS011;4349;47.552;8.904;2023-02-20T13:17:26;3.17;;;3.00;;
8622;SDS011;4349;47.552;8.904;2023-02-20T13:19:59;2.93;;;2.83;;
8622;SDS011;4349;47.552;8.904;2023-02-20T13:22:28;3.63;;;2.67;;
8622;SDS011;4349;47.552;8.904;2023-02-20T13:25:01;3.20;;;3.00;;
8622;SDS011;4349;47.552;8.904;2023-02-20T13:27:59;2.97;;;2.80;;
8622;SDS011;4349;47.552;8.904;2023-02-20T13:30:26;2.70;;;2.60;;
8622;SDS011;4349;47.552;8.904;2023-02-20T13:33:09;2.50;;;2.40;;
8622;SDS011;4349;47.552;8.904;2023-02-20T13:35:43;2.87;;;2.60;;
8622;SDS011;4349;47.552;8.904;2023-02-20T13:38:13;2.40;;;2.20;;
8622;SDS011;4349;47.552;8.904;2023-02-20T13:40:41;2.60;;;2.40;;
8622;SDS011;4349;47.552;8.904;2023-02-20T13:43:19;2.80;;;2.50;;
8622;SDS011;4349;47.552;8.904;2023-02-20T13:48:39;6.87;;;3.10;;
8622;SDS011;4349;47.552;8.904;2023-02-20T13:54:00;2.70;;;1.90;;
8622;SDS011;4349;47.552;8.904;2023-02-20T13:56:44;2.33;;;2.13;;
8622;SDS011;4349;47.552;8.904;2023-02-20T13:59:14;2.10;;;2.00;;
8622;SDS011;4349;47.552;8.904;2023-02-20T14:01:53;1.80;;;1.73;;
8622;SDS011;4349;47.552;8.904;2023-02-20T14:04:21;1.83;;;1.73;;
8622;SDS011;4349;47.552;8.904;2023-02-20T14:06:49;1.97;;;1.80;;
8622;SDS011;4349;47.552;8.904;2023-02-20T14:09:24;1.67;;;1.67;;
8622;SDS011;4349;47.552;8.904;2023-02-20T14:12:01;1.63;;;1.63;;
8622;SDS011;4349;47.552;8.904;2023-02-20T14:14:33;1.80;;;1.70;;
8622;SDS011;4349;47.552;8.904;2023-02-20T14:17:02;2.03;;;1.93;;
8622;SDS011;4349;47.552;8.904;2023-02-20T14:19:30;1.90;;;1.80;;
8622;SDS011;4349;47.552;8.904;2023-02-20T14:22:21;1.80;;;1.70;;
8622;SDS011;4349;47.552;8.904;2023-02-20T14:24:59;3.83;;;2.17;;
8622;SDS011;4349;47.552;8.904;2023-02-20T14:27:29;2.17;;;2.03;;
8622;SDS011;4349;47.552;8.904;2023-02-20T14:30:06;2.17;;;2.07;;
8622;SDS011;4349;47.552;8.904;2023-02-20T14:32:35;2.43;;;1.87;;
8622;SDS011;4349;47.552;8.904;2023-02-20T14:35:05;2.10;;;1.90;;
8622;SDS011;4349;47.552;8.904;2023-02-20T14:37:35;2.00;;;1.90;;
8622;SDS011;4349;47.552;8.904;2023-02-20T14:40:12;1.87;;;1.80;;
8622;SDS011;4349;47.552;8.904;2023-02-20T14:42:43;2.17;;;1.77;;
8622;SDS011;4349;47.552;8.904;2023-02-20T14:45:14;3.23;;;1.80;;
8622;SDS011;4349;47.552;8.904;2023-02-20T14:47:50;2.40;;;2.03;;
8622;SDS011;4349;47.552;8.904;2023-02-20T14:50:20;1.60;;;1.50;;
8622;SDS011;4349;47.552;8.904;2023-02-20T14:52:59;3.73;;;1.90;;
8622;SDS011;4349;47.552;8.904;2023-02-20T14:55:27;1.53;;;1.43;;
8622;SDS011;4349;47.552;8.904;2023-02-20T14:57:54;1.80;;;1.70;;
8622;SDS011;4349;47.552;8.904;2023-02-20T15:00:30;1.80;;;1.70;;
8622;SDS011;4349;47.552;8.904;2023-02-20T15:02:58;2.20;;;1.70;;
8622;SDS011;4349;47.552;8.904;2023-02-20T15:05:27;2.00;;;1.80;;
8622;SDS011;4349;47.552;8.904;2023-02-20T15:07:59;2.23;;;2.07;;
8622;SDS011;4349;47.552;8.904;2023-02-20T15:10:30;2.17;;;2.07;;
8622;SDS011;4349;47.552;8.904;2023-02-20T15:13:00;1.90;;;1.80;;
8622;SDS011;4349;47.552;8.904;2023-02-20T15:15:34;2.73;;;1.83;;
8622;SDS011;4349;47.552;8.904;2023-02-20T15:18:07;2.20;;;1.73;;
8622;SDS011;4349;47.552;8.904;2023-02-20T15:20:37;2.70;;;1.70;;
8622;SDS011;4349;47.552;8.904;2023-02-20T15:23:08;1.60;;;1.50;;
8622;SDS011;4349;47.552;8.904;2023-02-20T15:25:41;2.37;;;2.03;;
8622;SDS011;4349;47.552;8.904;2023-02-20T15:28:09;2.27;;;2.10;;
8622;SDS011;4349;47.552;8.904;2023-02-20T15:33:21;2.00;;;1.90;;
8622;SDS011;4349;47.552;8.904;2023-02-20T15:35:49;1.93;;;1.70;;
8622;SDS011;4349;47.552;8.904;2023-02-20T15:38:16;1.83;;;1.70;;
8622;SDS011;4349;47.552;8.904;2023-02-20T15:40:44;2.33;;;1.87;;
8622;SDS011;4349;47.552;8.904;2023-02-20T15:43:11;2.73;;;1.70;;
8622;SDS011;4349;47.552;8.904;2023-02-20T15:45:59;1.53;;;1.50;;
8622;SDS011;4349;47.552;8.904;2023-02-20T15:48:28;2.00;;;1.90;;
8622;SDS011;4349;47.552;8.904;2023-02-20T15:50:55;1.97;;;1.87;;
8622;SDS011;4349;47.552;8.904;2023-02-20T15:53:24;2.13;;;1.80;;
8622;SDS011;4349;47.552;8.904;2023-02-20T15:55:52;1.90;;;1.80;;